createdAt,value
2022-12-08T00:01:42.084Z,23.17
2022-12-08T00:04:11.189Z,27.27
2022-12-08T00:06:59.560Z,20.70
2022-12-08T00:09:36.409Z,20.27
2022-12-08T00:12:08.464Z,20.48
2022-12-08T00:14:40.292Z,24.45
2022-12-08T00:17:09.762Z,21.83
2022-12-08T00:19:39.118Z,19.38
2022-12-08T00:22:07.547Z,22.13
2022-12-08T00:24:38.572Z,21.00
2022-12-08T00:27:06.773Z,21.50
2022-12-08T00:29:34.737Z,22.55
2022-12-08T00:32:04.108Z,19.40
2022-12-08T00:34:32.415Z,21.73
2022-12-08T00:37:00.327Z,23.42
2022-12-08T00:39:28.155Z,15.27
2022-12-08T00:42:14.180Z,18.70
2022-12-08T00:44:44.202Z,19.30
2022-12-08T00:47:15.328Z,20.15
2022-12-08T00:49:45.917Z,19.85
2022-12-08T00:52:13.772Z,17.13
2022-12-08T00:54:41.718Z,18.15
2022-12-08T00:57:11.572Z,19.17
2022-12-08T00:59:39.373Z,20.60
2022-12-08T01:02:07.152Z,21.13
2022-12-08T01:04:36.330Z,24.48
2022-12-08T01:07:04.101Z,22.00
2022-12-08T01:09:32.648Z,22.38
2022-12-08T01:12:00.940Z,24.15
2022-12-08T01:14:28.793Z,17.67
2022-12-08T01:16:56.642Z,21.55
2022-12-08T01:19:24.442Z,20.23
2022-12-08T01:21:53.581Z,22.48
2022-12-08T01:24:22.559Z,23.30
2022-12-08T01:26:51.551Z,22.55
2022-12-08T01:29:22.342Z,20.85
2022-12-08T01:31:50.102Z,26.80
2022-12-08T01:34:18.080Z,25.00
2022-12-08T01:36:48.295Z,22.73
2022-12-08T01:39:20.160Z,29.17
2022-12-08T01:41:48.908Z,28.52
2022-12-08T01:44:51.112Z,29.85
2022-12-08T01:47:19.000Z,25.77
2022-12-08T01:49:47.583Z,26.05
2022-12-08T01:52:19.343Z,24.17
2022-12-08T01:54:52.492Z,30.77
2022-12-08T01:57:25.192Z,29.80
2022-12-08T01:59:57.667Z,30.58
2022-12-08T02:04:55.545Z,32.60
2022-12-08T02:07:26.518Z,37.63
2022-12-08T02:09:58.102Z,36.70
2022-12-08T02:12:26.145Z,37.00
2022-12-08T02:14:54.014Z,43.85
2022-12-08T02:17:37.454Z,38.17
2022-12-08T02:20:35.506Z,41.00
2022-12-08T02:23:13.475Z,40.45
2022-12-08T02:26:02.325Z,33.72
2022-12-08T02:28:57.061Z,43.30
2022-12-08T02:31:38.870Z,37.15
2022-12-08T02:34:20.092Z,38.23
2022-12-08T02:36:55.855Z,44.30
2022-12-08T02:39:34.350Z,47.63
2022-12-08T02:42:11.110Z,48.85
2022-12-08T02:44:43.165Z,43.60
2022-12-08T02:47:15.229Z,45.28
2022-12-08T02:49:44.549Z,36.15
2022-12-08T02:52:40.631Z,43.55
2022-12-08T02:55:13.183Z,46.15
2022-12-08T03:00:18.234Z,47.45
2022-12-08T03:02:55.906Z,46.65
2022-12-08T03:05:40.391Z,46.38
2022-12-08T03:08:15.987Z,44.17
2022-12-08T03:10:52.453Z,51.55
2022-12-08T03:13:26.698Z,49.20
2022-12-08T03:15:57.005Z,43.83
2022-12-08T03:18:30.056Z,52.80
2022-12-08T03:21:01.228Z,50.83
2022-12-08T03:23:29.486Z,51.88
2022-12-08T03:26:03.512Z,49.58
2022-12-08T03:28:31.622Z,52.58
2022-12-08T03:31:04.185Z,55.55
2022-12-08T03:36:08.313Z,53.88
2022-12-08T03:38:42.455Z,57.40
2022-12-08T03:41:24.836Z,53.50
2022-12-08T03:44:05.492Z,51.75
2022-12-08T03:46:46.699Z,48.55
2022-12-08T03:49:21.067Z,46.10
2022-12-08T03:51:58.057Z,51.13
2022-12-08T03:54:26.200Z,50.63
2022-12-08T03:56:54.176Z,49.63
2022-12-08T03:59:22.195Z,51.45
2022-12-08T04:01:50.177Z,43.65
2022-12-08T04:04:18.937Z,49.42
2022-12-08T04:06:47.339Z,48.33
2022-12-08T04:09:16.548Z,39.85
2022-12-08T04:11:44.824Z,47.10
2022-12-08T04:14:12.698Z,48.08
2022-12-08T04:16:40.480Z,43.92
2022-12-08T04:19:08.476Z,41.13
2022-12-08T04:21:36.289Z,43.25
2022-12-08T04:24:04.179Z,44.53
2022-12-08T04:26:33.451Z,45.53
2022-12-08T04:29:01.595Z,44.60
2022-12-08T04:31:29.506Z,43.00
2022-12-08T04:33:57.624Z,48.08
2022-12-08T04:36:25.485Z,43.42
2022-12-08T04:38:53.352Z,43.95
2022-12-08T04:41:21.122Z,47.92
2022-12-08T04:43:50.379Z,42.13
2022-12-08T04:46:18.373Z,44.28
2022-12-08T04:48:48.766Z,42.60
2022-12-08T04:51:21.350Z,43.08
2022-12-08T04:53:49.472Z,37.05
2022-12-08T04:56:19.616Z,39.50
2022-12-08T04:58:47.593Z,37.70
2022-12-08T05:01:16.953Z,36.50
2022-12-08T05:03:44.875Z,35.65
2022-12-08T05:06:14.537Z,36.50
2022-12-08T05:08:42.553Z,35.33
2022-12-08T05:11:12.467Z,35.97
2022-12-08T05:13:40.558Z,32.78
2022-12-08T05:16:10.479Z,31.98
2022-12-08T05:18:40.658Z,29.50
2022-12-08T05:21:09.368Z,32.97
2022-12-08T05:23:37.256Z,30.65
2022-12-08T05:26:05.096Z,29.90
2022-12-08T05:28:41.318Z,29.92
2022-12-08T05:31:10.338Z,33.00
2022-12-08T05:33:39.856Z,27.40
2022-12-08T05:36:08.247Z,22.83
2022-12-08T05:38:36.088Z,24.77
2022-12-08T05:41:04.149Z,26.35
2022-12-08T05:43:32.014Z,24.20
2022-12-08T05:45:59.884Z,21.60
2022-12-08T05:48:27.884Z,20.83
2022-12-08T05:50:57.358Z,23.30
2022-12-08T05:53:25.230Z,22.10
2022-12-08T05:55:53.616Z,25.08
2022-12-08T05:58:23.237Z,22.40
2022-12-08T06:00:52.493Z,25.73
2022-12-08T06:03:20.880Z,25.25
2022-12-08T06:05:49.315Z,25.45
2022-12-08T06:08:18.729Z,26.73
2022-12-08T06:10:47.437Z,28.17
2022-12-08T06:13:17.368Z,30.45
2022-12-08T06:15:45.120Z,33.85
2022-12-08T06:18:13.185Z,29.90
2022-12-08T06:20:41.162Z,30.23
2022-12-08T06:23:09.474Z,30.13
2022-12-08T06:25:38.843Z,33.67
2022-12-08T06:28:07.389Z,34.80
2022-12-08T06:30:35.586Z,29.25
2022-12-08T06:33:03.568Z,28.73
2022-12-08T06:35:31.579Z,25.00
2022-12-08T06:37:59.611Z,28.52
2022-12-08T06:40:27.554Z,26.35
2022-12-08T06:42:56.835Z,27.25
2022-12-08T06:45:26.463Z,28.27
2022-12-08T06:47:54.423Z,24.58
2022-12-08T06:50:22.678Z,24.17
2022-12-08T06:53:02.703Z,25.90
2022-12-08T06:55:57.988Z,30.10
2022-12-08T06:58:22.250Z,34.17
2022-12-08T07:00:50.224Z,31.35
2022-12-08T07:03:18.186Z,37.33
2022-12-08T07:05:46.192Z,30.70
2022-12-08T07:08:14.264Z,36.50
2022-12-08T07:10:42.176Z,34.10
2022-12-08T07:13:09.960Z,35.72
2022-12-08T07:15:39.286Z,35.55
2022-12-08T07:18:07.215Z,31.65
2022-12-08T07:20:35.095Z,30.13
2022-12-08T07:23:02.846Z,29.13
2022-12-08T07:25:30.701Z,27.10
2022-12-08T07:27:58.556Z,27.08
2022-12-08T07:30:26.399Z,25.38
2022-12-08T07:32:55.623Z,28.48
2022-12-08T07:35:23.433Z,25.67
2022-12-08T07:37:51.350Z,22.73
2022-12-08T07:40:19.535Z,22.40
2022-12-08T07:42:47.512Z,23.83
2022-12-08T07:45:15.410Z,20.15
2022-12-08T07:47:43.284Z,21.52
2022-12-08T07:50:13.133Z,18.38
2022-12-08T07:52:41.047Z,27.02
2022-12-08T07:55:09.646Z,20.35
2022-12-08T07:57:37.542Z,18.60
2022-12-08T08:00:07.438Z,19.83
2022-12-08T08:02:35.763Z,19.13
2022-12-08T08:05:04.188Z,17.95
2022-12-08T08:07:33.674Z,18.00
2022-12-08T08:10:01.713Z,15.60
2022-12-08T08:12:31.722Z,16.90
2022-12-08T08:15:02.995Z,18.70
2022-12-08T08:17:31.279Z,14.63
2022-12-08T08:19:59.154Z,20.20
2022-12-08T08:22:27.953Z,21.00
2022-12-08T08:24:57.086Z,18.10
2022-12-08T08:27:25.123Z,20.20
2022-12-08T08:29:52.981Z,21.00
2022-12-08T08:32:20.852Z,20.95
2022-12-08T08:34:48.966Z,16.48
2022-12-08T08:37:16.966Z,16.90
2022-12-08T08:39:44.954Z,17.38
2022-12-08T08:42:14.338Z,15.98
2022-12-08T08:44:42.339Z,17.25
2022-12-08T08:47:10.574Z,12.80
2022-12-08T08:49:38.735Z,14.68
2022-12-08T08:52:07.467Z,15.93
2022-12-08T08:54:37.200Z,14.98
2022-12-08T08:57:05.480Z,15.30
2022-12-08T08:59:34.800Z,15.07
2022-12-08T09:02:02.898Z,16.63
2022-12-08T09:04:30.990Z,18.15
2022-12-08T09:06:59.587Z,17.17
2022-12-08T09:09:27.623Z,19.50
2022-12-08T09:11:56.211Z,18.77
2022-12-08T09:14:24.679Z,22.80
2022-12-08T09:16:54.004Z,23.52
2022-12-08T09:19:22.271Z,21.38
2022-12-08T09:21:50.388Z,26.10
2022-12-08T09:24:18.448Z,25.05
2022-12-08T09:26:47.215Z,22.02
2022-12-08T09:29:15.210Z,29.40
2022-12-08T09:31:43.408Z,23.60
2022-12-08T09:34:13.457Z,29.52
2022-12-08T09:36:41.998Z,26.58
2022-12-08T09:39:10.308Z,23.92
2022-12-08T09:41:48.409Z,28.60
2022-12-08T09:44:38.574Z,27.25
2022-12-08T09:47:15.017Z,34.00
2022-12-08T09:49:49.571Z,32.83
2022-12-08T09:52:26.653Z,28.98
2022-12-08T09:55:00.150Z,29.58
2022-12-08T09:57:28.152Z,28.55
2022-12-08T10:00:01.135Z,35.17
2022-12-08T10:02:31.527Z,32.25
2022-12-08T10:05:01.340Z,31.88
2022-12-08T10:07:40.251Z,26.17
2022-12-08T10:10:21.121Z,26.55
2022-12-08T10:12:55.063Z,30.45
2022-12-08T10:15:43.184Z,28.42
2022-12-08T10:18:16.266Z,29.13
2022-12-08T10:20:50.817Z,25.85
2022-12-08T10:23:29.667Z,24.20
2022-12-08T10:26:10.700Z,24.25
2022-12-08T10:28:44.440Z,25.52
2022-12-08T10:31:17.941Z,25.48
2022-12-08T10:33:47.592Z,24.80
2022-12-08T10:36:17.096Z,25.65
2022-12-08T10:38:45.095Z,27.45
2022-12-08T10:41:19.521Z,30.15
2022-12-08T10:43:50.609Z,28.42
2022-12-08T10:46:20.982Z,28.92
2022-12-08T10:48:51.412Z,25.13
2022-12-08T10:51:31.104Z,34.05
2022-12-08T10:53:59.419Z,29.25
2022-12-08T10:56:29.530Z,30.15
2022-12-08T10:59:14.818Z,36.33
2022-12-08T11:01:46.512Z,31.23
2022-12-08T11:04:18.372Z,33.40
2022-12-08T11:06:48.965Z,32.90
2022-12-08T11:09:36.079Z,30.10
2022-12-08T11:12:09.215Z,30.35
2022-12-08T11:14:49.330Z,38.50
2022-12-08T11:17:19.220Z,26.40
2022-12-08T11:19:57.987Z,29.90
2022-12-08T11:22:31.012Z,29.98
2022-12-08T11:25:01.689Z,25.20
2022-12-08T11:27:29.698Z,27.27
2022-12-08T11:29:58.079Z,24.27
2022-12-08T11:32:25.875Z,21.30
2022-12-08T11:35:00.233Z,16.77
2022-12-08T11:37:35.209Z,14.15
2022-12-08T11:40:08.327Z,16.98
2022-12-08T11:42:44.454Z,12.45
2022-12-08T11:45:26.657Z,14.07
2022-12-08T11:48:03.173Z,15.23
2022-12-08T11:50:36.863Z,13.23
2022-12-08T11:53:10.033Z,12.75
2022-12-08T11:55:45.191Z,13.73
2022-12-08T11:58:20.607Z,13.25
2022-12-08T12:00:48.781Z,17.13
2022-12-08T12:03:30.015Z,12.15
2022-12-08T12:09:14.231Z,13.50
2022-12-08T12:12:11.889Z,14.40
2022-12-08T12:15:17.379Z,12.95
2022-12-08T12:17:48.987Z,14.65
2022-12-08T12:20:22.259Z,11.97
2022-12-08T12:22:57.772Z,11.68
2022-12-08T12:25:28.302Z,11.15
2022-12-08T12:28:02.102Z,10.52
2022-12-08T12:30:36.206Z,12.32
2022-12-08T12:33:11.977Z,8.30
2022-12-08T12:35:44.007Z,9.27
2022-12-08T12:38:41.069Z,9.40
2022-12-08T12:41:11.778Z,9.60
2022-12-08T12:43:40.234Z,11.13
2022-12-08T12:46:41.285Z,9.63
2022-12-08T12:49:48.686Z,8.38
2022-12-08T12:52:45.542Z,8.25
2022-12-08T12:55:28.944Z,6.15
2022-12-08T12:58:01.467Z,8.07
2022-12-08T13:02:59.707Z,7.82
2022-12-08T13:05:30.055Z,7.97
2022-12-08T13:08:01.202Z,7.93
2022-12-08T13:10:32.357Z,10.63
2022-12-08T13:13:18.935Z,11.10
2022-12-08T13:16:18.856Z,12.10
2022-12-08T13:18:52.463Z,12.27
2022-12-08T13:21:23.997Z,12.40
2022-12-08T13:24:17.690Z,14.33
2022-12-08T13:26:46.659Z,12.10
2022-12-08T13:29:22.741Z,11.43
2022-12-08T13:31:53.355Z,12.55
2022-12-08T13:34:27.958Z,12.90
2022-12-08T13:37:05.288Z,12.38
2022-12-08T13:39:44.267Z,15.85
2022-12-08T13:42:22.158Z,15.88
2022-12-08T13:48:23.532Z,17.10
2022-12-08T13:57:03.903Z,26.85
2022-12-08T13:59:39.735Z,28.35
2022-12-08T14:02:27.991Z,27.80
2022-12-08T14:07:50.736Z,27.85
2022-12-08T14:10:22.062Z,30.63
2022-12-08T14:12:55.933Z,23.63
2022-12-08T14:15:26.357Z,24.48
2022-12-08T14:17:58.752Z,28.33
2022-12-08T14:20:30.007Z,22.40
2022-12-08T14:22:59.020Z,20.17
2022-12-08T14:25:29.158Z,28.88
2022-12-08T14:28:01.644Z,19.85
2022-12-08T14:33:03.112Z,19.75
2022-12-08T14:35:32.062Z,19.40
2022-12-08T14:38:02.457Z,20.65
2022-12-08T14:40:33.734Z,24.67
2022-12-08T14:43:15.920Z,22.55
2022-12-08T14:45:53.258Z,18.23
2022-12-08T14:48:27.353Z,20.42
2022-12-08T14:51:05.281Z,18.42
2022-12-08T14:54:14.577Z,15.77
2022-12-08T14:56:51.239Z,19.42
2022-12-08T14:59:22.884Z,16.35
2022-12-08T15:01:54.006Z,17.85
2022-12-08T15:04:33.631Z,18.42
2022-12-08T15:07:08.093Z,15.80
2022-12-08T15:09:38.762Z,17.08
2022-12-08T15:12:27.205Z,13.95
2022-12-08T15:14:58.153Z,14.88
2022-12-08T15:17:34.316Z,14.20
2022-12-08T15:20:05.794Z,20.63
2022-12-08T15:22:35.322Z,18.20
2022-12-08T15:25:13.744Z,22.30
2022-12-08T15:27:50.043Z,16.92
2022-12-08T15:30:19.365Z,15.65
2022-12-08T15:32:48.380Z,21.02
2022-12-08T15:35:17.890Z,24.90
2022-12-08T15:37:46.545Z,26.17
2022-12-08T15:40:18.524Z,19.15
2022-12-08T15:42:46.923Z,24.10
2022-12-08T15:45:15.454Z,24.90
2022-12-08T15:47:44.980Z,24.95
2022-12-08T15:50:19.207Z,26.27
2022-12-08T15:52:50.234Z,27.27
2022-12-08T15:55:19.861Z,28.58
2022-12-08T15:58:51.250Z,25.23
2022-12-08T16:00:55.494Z,22.92
2022-12-08T16:09:16.787Z,27.83
2022-12-08T16:12:07.866Z,29.73
2022-12-08T16:17:25.310Z,28.73
2022-12-08T16:19:53.481Z,29.70
2022-12-08T16:28:08.157Z,31.13
2022-12-08T16:30:41.372Z,32.45
2022-12-08T16:33:10.697Z,33.05
2022-12-08T16:35:38.674Z,41.33
2022-12-08T16:38:08.034Z,34.05
2022-12-08T16:40:57.821Z,37.22
2022-12-08T16:43:24.737Z,39.28
2022-12-08T16:45:52.873Z,33.63
2022-12-08T16:48:22.540Z,39.85
2022-12-08T16:50:50.455Z,34.83
2022-12-08T16:53:19.865Z,32.22
2022-12-08T16:55:48.887Z,36.50
2022-12-08T16:58:18.537Z,33.75
2022-12-08T17:00:46.649Z,38.63
2022-12-08T17:03:16.405Z,45.10
2022-12-08T17:05:45.061Z,36.95
2022-12-08T17:08:14.134Z,34.75
2022-12-08T17:11:05.997Z,37.03
2022-12-08T17:13:34.630Z,37.40
2022-12-08T17:16:03.163Z,40.75
2022-12-08T17:18:33.534Z,35.85
2022-12-08T17:21:01.606Z,45.60
2022-12-08T17:23:29.873Z,35.17
2022-12-08T17:26:02.801Z,36.35
2022-12-08T17:28:58.313Z,34.55
2022-12-08T17:31:24.696Z,37.20
2022-12-08T17:33:55.873Z,35.55
2022-12-08T17:36:23.921Z,45.10
2022-12-08T17:38:52.176Z,44.53
2022-12-08T17:41:21.727Z,41.45
2022-12-08T17:43:49.675Z,40.83
2022-12-08T17:46:19.092Z,44.30
2022-12-08T17:48:47.191Z,42.92
2022-12-08T17:51:16.222Z,42.33
2022-12-08T17:53:44.481Z,51.10
2022-12-08T17:56:16.732Z,52.78
2022-12-08T17:58:49.851Z,44.38
2022-12-08T18:01:22.865Z,38.95
2022-12-08T18:03:50.946Z,37.33
2022-12-08T18:06:18.992Z,39.28
2022-12-08T18:08:47.310Z,49.65
2022-12-08T18:11:19.253Z,49.35
2022-12-08T18:13:50.819Z,28.75
2022-12-08T18:16:20.325Z,34.37
2022-12-08T18:18:51.926Z,33.70
2022-12-08T18:21:23.526Z,36.10
2022-12-08T18:23:53.630Z,38.63
2022-12-08T18:26:23.235Z,41.55
2022-12-08T18:28:52.799Z,38.53
2022-12-08T18:31:22.937Z,39.03
2022-12-08T18:33:52.123Z,44.15
2022-12-08T18:36:30.184Z,45.20
2022-12-08T18:39:03.372Z,41.53
2022-12-08T18:41:34.303Z,42.55
2022-12-08T18:44:04.030Z,39.97
2022-12-08T18:46:33.270Z,35.40
2022-12-08T18:49:01.413Z,36.08
2022-12-08T18:51:29.776Z,37.85
2022-12-08T18:53:59.883Z,36.60
2022-12-08T18:56:29.710Z,38.55
2022-12-08T18:59:03.651Z,34.15
2022-12-08T19:01:34.740Z,33.45
2022-12-08T19:06:59.468Z,33.13
2022-12-08T19:09:29.044Z,30.25
2022-12-08T19:11:57.733Z,36.35
2022-12-08T19:14:28.604Z,30.10
2022-12-08T19:16:58.989Z,35.28
2022-12-08T19:19:27.523Z,35.40
2022-12-08T19:21:55.857Z,36.70
2022-12-08T19:24:24.335Z,34.20
2022-12-08T19:26:52.580Z,30.85
2022-12-08T19:29:24.175Z,38.50
2022-12-08T19:32:03.396Z,39.97
2022-12-08T19:34:35.298Z,39.38
2022-12-08T19:37:04.742Z,37.10
2022-12-08T19:39:52.029Z,34.60
2022-12-08T19:42:38.727Z,40.95
2022-12-08T19:45:12.121Z,33.03
2022-12-08T19:47:45.138Z,35.33
2022-12-08T19:50:33.413Z,43.00
2022-12-08T19:53:01.942Z,37.72
2022-12-08T19:55:32.105Z,42.00
2022-12-08T19:58:01.977Z,35.05
2022-12-08T20:00:31.493Z,41.97
2022-12-08T20:03:01.770Z,34.10
2022-12-08T20:05:32.000Z,36.70
2022-12-08T20:08:00.568Z,41.28
2022-12-08T20:10:31.051Z,34.65
2022-12-08T20:13:12.929Z,37.08
2022-12-08T20:15:41.295Z,38.28
2022-12-08T20:18:09.476Z,33.80
2022-12-08T20:20:39.130Z,36.78
2022-12-08T20:23:07.294Z,33.58
2022-12-08T20:25:38.604Z,40.83
2022-12-08T20:28:07.137Z,33.28
2022-12-08T20:30:35.515Z,32.65
2022-12-08T20:33:03.895Z,32.17
2022-12-08T20:35:33.512Z,32.80
2022-12-08T20:38:03.100Z,34.72
2022-12-08T20:40:31.140Z,33.28
2022-12-08T20:42:59.225Z,32.05
2022-12-08T20:45:27.226Z,28.70
2022-12-08T20:47:55.379Z,33.08
2022-12-08T20:50:23.405Z,36.45
2022-12-08T20:52:51.741Z,33.85
2022-12-08T20:55:23.092Z,33.97
2022-12-08T20:57:53.133Z,38.08
2022-12-08T21:00:23.304Z,40.97
2022-12-08T21:02:56.497Z,39.72
2022-12-08T21:05:33.540Z,33.42
2022-12-08T21:08:01.925Z,34.28
2022-12-08T21:10:31.727Z,38.50
2022-12-08T21:13:08.713Z,33.20
2022-12-08T21:15:38.996Z,34.65
2022-12-08T21:18:07.480Z,38.95
2022-12-08T21:20:36.109Z,37.72
2022-12-08T21:23:05.404Z,42.80
2022-12-08T21:25:34.771Z,36.40
2022-12-08T21:31:56.481Z,36.63
2022-12-08T21:40:08.368Z,47.47
2022-12-08T21:42:46.813Z,36.00
2022-12-08T21:45:16.825Z,42.38
2022-12-08T21:47:45.421Z,36.58
2022-12-08T21:50:14.433Z,32.00
2022-12-08T21:52:44.700Z,27.50
2022-12-08T21:55:14.361Z,32.67
2022-12-08T21:57:44.499Z,29.40
2022-12-08T22:00:16.185Z,27.52
2022-12-08T22:02:44.956Z,38.45
2022-12-08T22:05:13.052Z,38.50
2022-12-08T22:07:43.062Z,33.25
2022-12-08T22:10:12.150Z,33.70
2022-12-08T22:12:40.694Z,29.83
2022-12-08T22:15:12.066Z,31.27
2022-12-08T22:17:42.769Z,31.33
2022-12-08T22:20:14.281Z,30.48
2022-12-08T22:22:43.089Z,30.30
2022-12-08T22:25:14.646Z,33.10
2022-12-08T22:27:42.761Z,32.03
2022-12-08T22:30:13.290Z,33.13
2022-12-08T22:32:42.014Z,31.88
2022-12-08T22:35:11.282Z,32.05
2022-12-08T22:37:39.311Z,30.88
2022-12-08T22:40:08.888Z,28.90
2022-12-08T22:42:37.148Z,29.85
2022-12-08T22:45:05.684Z,35.83
2022-12-08T22:47:35.812Z,37.90
2022-12-08T22:50:04.738Z,33.05
2022-12-08T22:52:33.590Z,37.30
2022-12-08T22:55:03.415Z,32.83
2022-12-08T22:57:31.899Z,34.42
2022-12-08T22:59:59.771Z,34.33
2022-12-08T23:02:27.837Z,37.13
2022-12-08T23:05:00.505Z,37.33
2022-12-08T23:07:28.998Z,37.03
2022-12-08T23:09:57.457Z,34.22
2022-12-08T23:12:25.553Z,35.45
2022-12-08T23:14:55.035Z,35.25
2022-12-08T23:17:23.337Z,34.47
2022-12-08T23:19:51.878Z,37.30
2022-12-08T23:22:21.537Z,40.10
2022-12-08T23:24:49.609Z,31.92
2022-12-08T23:27:17.823Z,31.80
2022-12-08T23:29:46.277Z,36.08
2022-12-08T23:32:16.068Z,37.45
2022-12-08T23:34:44.563Z,30.63
2022-12-08T23:37:15.006Z,34.15
2022-12-08T23:39:44.679Z,28.40
2022-12-08T23:42:12.973Z,36.10
2022-12-08T23:44:41.066Z,31.00
2022-12-08T23:47:09.201Z,34.53
2022-12-08T23:49:37.114Z,35.55
2022-12-08T23:52:05.917Z,32.42
2022-12-08T23:54:34.231Z,34.72
2022-12-08T23:57:04.002Z,31.48
2022-12-08T23:59:32.198Z,37.88
